Huvudsida
METAR-TAF:

METAR-TAF

Flygplatser :

Adolfo Suárez Madrid-Barajas flygplats

Madrid, Spanien

latitud: 40-27N, longitud: 003-33W, höjd: 609 m

Aktuellt väderrapport

Denna rapport gjordes för 36 minuter sedan, klockan 09:30 UTC
Vind 9 kt från nordost, varierande mellan nord och ost/sydost
Temperatur 9°C
Fuktighet 46%
Tryck 1028 hPa
Sikt 10 km eller mer
Inga moln under 1 500 m eller inga cumulonimbus

METAR: LEMD 200930Z 04009KT 360V120 CAVOK 09/M02 Q1028 NOSIG

Tid: 11:06 (10:06 UTC)

Väderprognos

Denna rapport gjordes för 5 timmar och 6 minuter sedan, klockan 05:00 UTC
Prognos gäller från 20 kl. 06 UTC till 21 kl. 12 UTC
Vind 8 kt från nord/nordost
Sikt 10 km eller mer
Inga moln under 1 500 m eller inga cumulonimbus
Sannolikhet 40% :
Temporärt
från 20 kl. 09 UTC till 20 kl. 18 UTC
Vind 12 kt från nord/nordost i byarna ända upp till 22 kt

TAF: LEMD 200500Z 2006/2112 02008KT CAVOK TX18/2015Z TN02/2006Z PROB40 TEMPO 2009/2018 02012G22KT

Aktuella väderrapporter och prognoser från 4000 flygplatser (METAR- och TAF-rapporter).

De tillgängliga stationerna syns som gula och röda prickar på kartan.

För musen över prickarna för att se namnen på stationerna.

Klicka sedan för att få väderrapporter och prognoser.

För att ändra kartan: Klicka på de gröna knapparna med ett svart kors på för att zooma in; den gröna knappen med ett streck på för att zooma ut; eller på de gröna pilarna för angränsande kartor.


METAR-TAF: